CheckWX is a tool to help pilots better visualize weather data.  It is not intended as a substitute for an official pre-flight weather briefing.

19:39:23 UTC

KORE METAR
Orange Municipal Airport
Orange, Massachusetts, USA
Current

47 mins ago

KORE 231852Z AUTO 00000KT 10SM CLR 04/M08 A3031 RMK AO2 SLP272 T00391078
Observed
Jan-23 @ 18:52 UTC
Visibility
10 SM
Flight Rules
VFR
Cloud Levels
  • Clear skies
Temperature
C / 39°F
Dewpoint
-8°C / 18°F
Humidity
42%
Altimeter
30.31" Hg
Pressure
1026.42 hPa
Previous

2 hours ago

KORE 231752Z AUTO 21005KT 10SM CLR 02/M07 A3033 RMK AO2 SLP279 I6001 T00221072 10022 21172 58017
Observed
Jan-23 @ 17:52 UTC
Wind
  • 210° at 5 KTS
Visibility
10 SM
Flight Rules
VFR
Cloud Levels
  • Clear skies
Temperature
C / 36°F
Dewpoint
-7°C / 19°F
Humidity
52%
Altimeter
30.33" Hg
Pressure
1027.12 hPa
Previous

3 hours ago

KORE 231652Z AUTO 00000KT 10SM CLR M01/M07 A3035 RMK AO2 SLP286 T10061072
Observed
Jan-23 @ 16:52 UTC
Visibility
10 SM
Flight Rules
VFR
Cloud Levels
  • Clear skies
Temperature
-1°C / 30°F
Dewpoint
-7°C / 19°F
Humidity
64%
Altimeter
30.35" Hg
Pressure
1027.82 hPa